Time;durP1;ratioP1;P1;durP2;ratioP2;P2;SDS_P1;SDS_P2;PMS_P1;PMS_P2;Temp;Humidity;BMP_temperature;BMP_pressure;BME280_temperature;BME280_humidity;BME280_pressure;Samples;Min_cycle;Max_cycle;Signal;HPM_P1;HPM_P2
2022/10/11 00:01:10;;;;;;;;;;;13.40;99.90;;;;;;5018059;28;19925;-74
2022/10/11 00:03:41;;;;;;;;;;;13.40;99.90;;;;;;5011688;28;19925;-73
2022/10/11 00:06:13;;;;;;;;;;;13.40;99.90;;;;;;4989717;28;19949;-72
2022/10/11 00:08:44;;;;;;;;;;;13.30;99.90;;;;;;5019843;28;20474;-71
2022/10/11 00:11:16;;;;;;;;;;;13.20;99.90;;;;;;5012286;28;20308;-73
2022/10/11 00:13:42;;;;;;;;;;;13.20;99.90;;;;;;5024043;28;19940;-74
2022/10/11 00:16:14;;;;;;;;;;;13.20;99.90;;;;;;4999833;28;19980;-73
2022/10/11 00:18:46;;;;;;;;;;;13.20;99.90;;;;;;4992045;28;19929;-72
2022/10/11 00:21:19;;;;;;;;;;;13.20;99.90;;;;;;5004158;28;19932;-73
2022/10/11 00:23:51;;;;;;;;;;;13.20;99.90;;;;;;5001140;28;19984;-72
2022/10/11 00:26:22;;;;;;;;;;;13.20;99.90;;;;;;5005608;28;20000;-73
2022/10/11 00:28:50;;;;;;;;;;;13.20;99.90;;;;;;5001677;28;19932;-73
2022/10/11 00:31:21;;;;;;;;;;;13.10;99.90;;;;;;4995836;28;19980;-73
2022/10/11 00:33:53;;;;;;;;;;;13.10;99.90;;;;;;4984027;28;19929;-72
2022/10/11 00:36:25;;;;;;;;;;;13.20;99.90;;;;;;5001063;28;19996;-73
2022/10/11 00:38:51;;;;;;;;;;;13.20;99.90;;;;;;5002058;28;19925;-73
2022/10/11 00:41:23;;;;;;;;;;;13.20;99.90;;;;;;5006393;28;19930;-72
2022/10/11 00:44:12;;;;;;;;;;;13.20;99.90;;;;;;5004907;28;19929;-73
2022/10/11 00:46:48;;;;;;;;;;;13.20;99.90;;;;;;5006413;28;20552;-73
2022/10/11 00:49:20;;;;;;;;;;;13.20;99.90;;;;;;5014779;28;19933;-72
2022/10/11 00:51:55;;;;;;;;;;;13.20;99.90;;;;;;5004688;28;19929;-71
2022/10/11 00:54:29;;;;;;;;;;;13.20;99.90;;;;;;5008727;28;19983;-73
2022/10/11 00:56:58;;;;;;;;;;;13.20;99.90;;;;;;5027013;28;19983;-73
2022/10/11 00:59:26;;;;;;;;;;;13.20;99.90;;;;;;4995878;28;19926;-72
2022/10/11 01:01:58;;;;;;;;;;;13.20;99.90;;;;;;5001567;28;19925;-73
2022/10/11 01:04:29;;;;;;;;;;;13.20;99.90;;;;;;4998564;28;19980;-73
2022/10/11 01:07:01;;;;;;;;;;;13.20;99.90;;;;;;5023282;28;19964;-73
2022/10/11 01:09:33;;;;;;;;;;;13.20;99.90;;;;;;5000617;28;19929;-73
2022/10/11 01:12:09;;;;;;;;;;;13.20;99.90;;;;;;5020421;28;19925;-73
2022/10/11 01:14:51;;;;;;;;;;;13.10;99.90;;;;;;5004630;28;20350;-73
2022/10/11 01:17:42;;;;;;;;;;;13.10;99.90;;;;;;5003478;28;20359;-73
2022/10/11 01:20:27;;;;;;;;;;;13.10;99.90;;;;;;5017087;28;19934;-73
2022/10/11 01:22:58;;;;;;;;;;;13.00;99.90;;;;;;5022116;28;19976;-73
2022/10/11 01:25:30;;;;;;;;;;;13.00;99.90;;;;;;5009482;28;20688;-72
2022/10/11 01:28:08;;;;;;;;;;;13.00;99.90;;;;;;5027242;28;19934;-72
2022/10/11 01:30:35;;;;;;;;;;;13.00;99.90;;;;;;4994899;28;20375;-73
2022/10/11 01:33:21;;;;;;;;;;;12.90;99.90;;;;;;5002002;28;20614;-72
2022/10/11 01:36:04;;;;;;;;;;;12.90;99.90;;;;;;5016044;28;19936;-72
2022/10/11 01:38:45;;;;;;;;;;;12.80;99.90;;;;;;5006208;28;19929;-73
2022/10/11 01:41:49;;;;;;;;;;;12.90;99.90;;;;;;5023368;28;19930;-71
2022/10/11 01:44:22;;;;;;;;;;;12.80;99.90;;;;;;4993090;28;20396;-72
2022/10/11 01:46:54;;;;;;;;;;;12.80;99.90;;;;;;5006719;28;20528;-73
2022/10/11 01:49:26;;;;;;;;;;;12.80;99.90;;;;;;4994654;28;19930;-73
2022/10/11 01:51:59;;;;;;;;;;;12.80;99.90;;;;;;5017198;28;20617;-73
2022/10/11 01:54:49;;;;;;;;;;;12.80;99.90;;;;;;5003881;28;19964;-73
2022/10/11 01:57:40;;;;;;;;;;;12.80;99.90;;;;;;5007422;28;19983;-73
2022/10/11 02:00:13;;;;;;;;;;;12.80;99.90;;;;;;4992511;28;19960;-73
2022/10/11 02:02:59;;;;;;;;;;;12.80;99.90;;;;;;5006621;28;20377;-72
2022/10/11 02:05:41;;;;;;;;;;;12.80;99.90;;;;;;5013098;28;20458;-73
2022/10/11 02:08:20;;;;;;;;;;;12.70;99.90;;;;;;5003767;28;19955;-73
2022/10/11 02:10:46;;;;;;;;;;;12.80;99.90;;;;;;5023926;28;20300;-73
2022/10/11 02:13:24;;;;;;;;;;;12.80;99.90;;;;;;4995587;28;19929;-73
2022/10/11 02:15:57;;;;;;;;;;;12.80;99.90;;;;;;5008690;28;20400;-73
2022/10/11 02:18:32;;;;;;;;;;;12.80;99.90;;;;;;5005478;28;20311;-73
2022/10/11 02:21:07;;;;;;;;;;;12.80;99.90;;;;;;5000923;28;19976;-73
2022/10/11 02:23:37;;;;;;;;;;;12.80;99.90;;;;;;4999796;28;19933;-71
2022/10/11 02:26:05;;;;;;;;;;;12.80;99.90;;;;;;5015214;28;19929;-73
2022/10/11 02:28:38;;;;;;;;;;;12.70;99.90;;;;;;5016872;28;20375;-73
2022/10/11 02:31:05;;;;;;;;;;;12.70;99.90;;;;;;5002762;28;19930;-73
2022/10/11 02:33:43;;;;;;;;;;;12.70;99.90;;;;;;5025847;28;20339;-74
2022/10/11 02:36:20;;;;;;;;;;;12.70;99.90;;;;;;4994546;28;19976;-73
2022/10/11 02:38:49;;;;;;;;;;;12.60;99.90;;;;;;5004407;28;19929;-73
2022/10/11 02:41:26;;;;;;;;;;;12.70;99.90;;;;;;5002887;28;19925;-73
2022/10/11 02:43:58;;;;;;;;;;;12.70;99.90;;;;;;5017893;28;20380;-73
2022/10/11 02:46:30;;;;;;;;;;;12.60;99.90;;;;;;5005760;28;20348;-73
2022/10/11 02:48:58;;;;;;;;;;;12.70;99.90;;;;;;5016567;28;19925;-72
2022/10/11 02:51:30;;;;;;;;;;;12.60;99.90;;;;;;4987702;28;19925;-72
2022/10/11 02:54:02;;;;;;;;;;;12.60;99.90;;;;;;4999583;28;19934;-72
2022/10/11 02:56:33;;;;;;;;;;;12.60;99.90;;;;;;4999366;28;20586;-72
2022/10/11 02:59:05;;;;;;;;;;;12.60;99.90;;;;;;5004040;28;19975;-72
2022/10/11 03:01:37;;;;;;;;;;;12.60;99.90;;;;;;4985392;28;19933;-72
2022/10/11 03:04:08;;;;;;;;;;;12.60;99.90;;;;;;5001593;28;20398;-72
2022/10/11 03:06:40;;;;;;;;;;;12.50;99.90;;;;;;5021297;28;19925;-72
2022/10/11 03:09:11;;;;;;;;;;;12.60;99.90;;;;;;4995614;28;19933;-72
2022/10/11 03:11:38;;;;;;;;;;;12.50;99.90;;;;;;5007475;28;19930;-72
2022/10/11 03:14:04;;;;;;;;;;;12.50;99.90;;;;;;4990860;28;20534;-72
2022/10/11 03:16:36;;;;;;;;;;;12.50;99.90;;;;;;5006273;28;20391;-72
2022/10/11 03:19:08;;;;;;;;;;;12.50;99.90;;;;;;5006679;28;19932;-72
2022/10/11 03:21:34;;;;;;;;;;;12.50;99.90;;;;;;5022417;28;19933;-72
2022/10/11 03:24:06;;;;;;;;;;;12.50;99.90;;;;;;5001069;28;19929;-72
2022/10/11 03:26:33;;;;;;;;;;;12.50;99.90;;;;;;5013720;28;19936;-72
2022/10/11 03:29:04;;;;;;;;;;;12.50;99.90;;;;;;4993251;28;19957;-72
2022/10/11 03:31:36;;;;;;;;;;;12.50;99.90;;;;;;5021905;28;20403;-72
2022/10/11 03:34:02;;;;;;;;;;;12.40;99.90;;;;;;5008188;28;19925;-72
2022/10/11 03:36:29;;;;;;;;;;;12.40;99.90;;;;;;5025393;28;19925;-72
2022/10/11 03:39:02;;;;;;;;;;;12.40;99.90;;;;;;5005677;28;19929;-72
2022/10/11 03:41:33;;;;;;;;;;;12.40;99.90;;;;;;5022452;28;19925;-72
2022/10/11 03:44:05;;;;;;;;;;;12.30;99.90;;;;;;5014473;28;19937;-72
2022/10/11 03:46:36;;;;;;;;;;;12.30;99.90;;;;;;4999310;28;20431;-72
2022/10/11 03:49:08;;;;;;;;;;;12.30;99.90;;;;;;5018915;28;19925;-72
2022/10/11 03:51:39;;;;;;;;;;;12.30;99.90;;;;;;5003865;28;19926;-72
2022/10/11 03:54:11;;;;;;;;;;;12.20;99.90;;;;;;5015734;28;19925;-72
2022/10/11 03:56:42;;;;;;;;;;;12.20;99.90;;;;;;5023447;28;19933;-72
2022/10/11 03:59:14;;;;;;;;;;;12.20;99.90;;;;;;5003851;28;19926;-72
2022/10/11 04:01:46;;;;;;;;;;;12.20;99.90;;;;;;5028474;28;19925;-72
2022/10/11 04:04:17;;;;;;;;;;;12.20;99.90;;;;;;5019424;28;19925;-72
2022/10/11 04:06:49;;;;;;;;;;;12.20;99.90;;;;;;5000478;28;19937;-72
2022/10/11 04:09:20;;;;;;;;;;;12.10;99.90;;;;;;5013847;28;19925;-73
2022/10/11 04:11:52;;;;;;;;;;;12.10;99.90;;;;;;5020514;28;19988;-73
2022/10/11 04:14:24;;;;;;;;;;;12.20;99.90;;;;;;5024633;28;20422;-72
2022/10/11 04:16:50;;;;;;;;;;;12.20;99.90;;;;;;5001975;28;19925;-74
2022/10/11 04:19:22;;;;;;;;;;;12.20;99.90;;;;;;5011628;28;19929;-72
2022/10/11 04:21:54;;;;;;;;;;;12.20;99.90;;;;;;5008644;28;19929;-73
2022/10/11 04:24:26;;;;;;;;;;;12.20;99.90;;;;;;5019197;28;20388;-72
2022/10/11 04:26:58;;;;;;;;;;;12.30;99.90;;;;;;5025723;28;19925;-72
2022/10/11 04:29:29;;;;;;;;;;;12.30;99.90;;;;;;5012199;28;19941;-72
2022/10/11 04:32:01;;;;;;;;;;;12.30;99.90;;;;;;5022439;28;20007;-72
2022/10/11 04:34:32;;;;;;;;;;;12.30;99.90;;;;;;5007800;28;19929;-72
2022/10/11 04:37:04;;;;;;;;;;;12.40;99.90;;;;;;5009097;28;20036;-72
2022/10/11 04:39:30;;;;;;;;;;;12.40;99.90;;;;;;5006596;28;19932;-72
2022/10/11 04:41:57;;;;;;;;;;;12.40;99.90;;;;;;5005233;28;19925;-74
2022/10/11 04:44:29;;;;;;;;;;;12.40;99.90;;;;;;5028906;28;19929;-72
2022/10/11 04:47:00;;;;;;;;;;;12.40;99.90;;;;;;5027146;28;20482;-72
2022/10/11 04:49:32;;;;;;;;;;;12.40;99.90;;;;;;5023662;28;20402;-72
2022/10/11 04:52:03;;;;;;;;;;;12.40;99.90;;;;;;5020170;28;19929;-72
2022/10/11 04:54:35;;;;;;;;;;;12.40;99.90;;;;;;5029083;28;19940;-72
2022/10/11 04:57:07;;;;;;;;;;;12.30;99.90;;;;;;4994853;28;19940;-72
2022/10/11 04:59:38;;;;;;;;;;;12.30;99.90;;;;;;4992436;28;19933;-72
2022/10/11 05:02:10;;;;;;;;;;;12.30;99.90;;;;;;5001115;28;19933;-72
2022/10/11 05:04:41;;;;;;;;;;;12.30;99.90;;;;;;4996040;28;19999;-72
2022/10/11 05:07:13;;;;;;;;;;;12.30;99.90;;;;;;5010232;28;19929;-72
2022/10/11 05:09:45;;;;;;;;;;;12.30;99.90;;;;;;5006279;28;19976;-72
2022/10/11 05:12:16;;;;;;;;;;;12.30;99.90;;;;;;5002310;28;19925;-72
2022/10/11 05:14:48;;;;;;;;;;;12.30;99.90;;;;;;5007848;28;19925;-72
2022/10/11 05:17:19;;;;;;;;;;;12.30;99.90;;;;;;5000974;28;19992;-72
2022/10/11 05:19:51;;;;;;;;;;;12.30;99.90;;;;;;5006202;28;20384;-72
2022/10/11 05:22:23;;;;;;;;;;;12.30;99.90;;;;;;5026921;28;19926;-72
2022/10/11 05:24:54;;;;;;;;;;;12.30;99.90;;;;;;5042916;28;19957;-72
2022/10/11 05:27:26;;;;;;;;;;;12.30;99.90;;;;;;5036069;28;19932;-72
2022/10/11 05:29:57;;;;;;;;;;;12.30;99.90;;;;;;5025525;28;20356;-72
2022/10/11 05:32:29;;;;;;;;;;;12.30;99.90;;;;;;5022331;28;19930;-72
2022/10/11 05:34:55;;;;;;;;;;;12.30;99.90;;;;;;5012496;28;19956;-73
2022/10/11 05:37:27;;;;;;;;;;;12.40;99.90;;;;;;5027854;28;19925;-72
2022/10/11 05:39:59;;;;;;;;;;;12.40;99.90;;;;;;5020175;28;19929;-72
2022/10/11 05:42:30;;;;;;;;;;;12.40;99.90;;;;;;4997917;28;19975;-72
2022/10/11 05:44:57;;;;;;;;;;;12.40;99.90;;;;;;5024926;28;19925;-72
2022/10/11 05:47:28;;;;;;;;;;;12.40;99.90;;;;;;5008731;28;19932;-72
2022/10/11 05:50:00;;;;;;;;;;;12.40;99.90;;;;;;4997587;28;19933;-72
2022/10/11 05:52:32;;;;;;;;;;;12.40;99.90;;;;;;5000445;28;20400;-72
2022/10/11 05:55:03;;;;;;;;;;;12.50;99.90;;;;;;5026769;28;20289;-72
2022/10/11 05:57:35;;;;;;;;;;;12.40;99.90;;;;;;5030834;28;19929;-72
2022/10/11 06:00:07;;;;;;;;;;;12.50;99.90;;;;;;5000356;28;19929;-72
2022/10/11 06:02:37;;;;;;;;;;;12.50;99.90;;;;;;5023478;28;19932;-72
2022/10/11 06:05:09;;;;;;;;;;;12.50;99.90;;;;;;4986299;28;20529;-72
2022/10/11 06:07:41;;;;;;;;;;;12.50;99.90;;;;;;5027933;28;19926;-72
2022/10/11 06:10:12;;;;;;;;;;;12.50;99.90;;;;;;5009301;28;20411;-72
2022/10/11 06:12:39;;;;;;;;;;;12.50;99.90;;;;;;5029743;28;19925;-72
2022/10/11 06:15:06;;;;;;;;;;;12.50;99.90;;;;;;5026518;28;20400;-72
2022/10/11 06:17:33;;;;;;;;;;;12.50;99.90;;;;;;5024308;28;19929;-72
2022/10/11 06:20:05;;;;;;;;;;;12.50;99.90;;;;;;5000171;28;19956;-72
2022/10/11 06:22:36;;;;;;;;;;;12.50;99.90;;;;;;5018145;28;19932;-72
2022/10/11 06:25:03;;;;;;;;;;;12.50;99.90;;;;;;5021846;28;19925;-72
2022/10/11 06:27:35;;;;;;;;;;;12.60;99.90;;;;;;5006130;28;19987;-72
2022/10/11 06:30:07;;;;;;;;;;;12.60;99.90;;;;;;5031267;28;19929;-72
2022/10/11 06:32:33;;;;;;;;;;;12.60;99.90;;;;;;5008971;28;19925;-72
2022/10/11 06:35:05;;;;;;;;;;;12.60;99.90;;;;;;5029632;28;19925;-72
2022/10/11 06:37:32;;;;;;;;;;;12.70;99.90;;;;;;5008802;28;19935;-72
2022/10/11 06:39:59;;;;;;;;;;;12.70;99.90;;;;;;4995658;28;20396;-72
2022/10/11 06:42:30;;;;;;;;;;;12.70;99.90;;;;;;5025560;28;19925;-72
2022/10/11 06:45:02;;;;;;;;;;;12.70;99.90;;;;;;5015563;28;19925;-72
2022/10/11 06:47:34;;;;;;;;;;;12.70;99.90;;;;;;4991887;28;19972;-72
2022/10/11 06:50:05;;;;;;;;;;;12.70;99.90;;;;;;5008886;28;19926;-72
2022/10/11 06:52:37;;;;;;;;;;;12.80;99.90;;;;;;5011121;28;19972;-72
2022/10/11 06:55:08;;;;;;;;;;;12.80;99.90;;;;;;5029430;28;19933;-72
2022/10/11 06:57:35;;;;;;;;;;;12.90;99.90;;;;;;5003386;28;19952;-72
2022/10/11 07:00:02;;;;;;;;;;;12.90;99.90;;;;;;5021053;28;19936;-71
2022/10/11 07:02:34;;;;;;;;;;;13.00;99.90;;;;;;4998049;28;19933;-72
2022/10/11 07:05:06;;;;;;;;;;;13.00;99.90;;;;;;5030022;28;20465;-72
2022/10/11 07:07:32;;;;;;;;;;;13.10;99.90;;;;;;5004231;28;19975;-72
2022/10/11 07:10:04;;;;;;;;;;;13.10;99.90;;;;;;5019940;28;19929;-72
2022/10/11 07:12:36;;;;;;;;;;;13.10;99.90;;;;;;5023874;28;20277;-72
2022/10/11 07:15:09;;;;;;;;;;;13.20;99.90;;;;;;5020844;28;19926;-73
2022/10/11 07:17:41;;;;;;;;;;;13.20;99.90;;;;;;5025192;28;19926;-72
2022/10/11 07:20:12;;;;;;;;;;;13.30;99.90;;;;;;5020442;28;19980;-72
2022/10/11 07:22:44;;;;;;;;;;;13.30;99.90;;;;;;5015572;28;19926;-72
2022/10/11 07:25:15;;;;;;;;;;;13.40;99.90;;;;;;5016235;28;19929;-72
2022/10/11 07:27:47;;;;;;;;;;;13.50;99.90;;;;;;5010584;28;19926;-72
2022/10/11 07:30:18;;;;;;;;;;;13.50;99.90;;;;;;5005203;28;19937;-72
2022/10/11 07:32:50;;;;;;;;;;;13.50;99.90;;;;;;4993104;28;19972;-72
2022/10/11 07:35:21;;;;;;;;;;;13.60;99.90;;;;;;5027748;28;19992;-72
2022/10/11 07:37:53;;;;;;;;;;;13.60;99.90;;;;;;5023756;28;19933;-72
2022/10/11 07:40:25;;;;;;;;;;;13.60;99.90;;;;;;4994222;28;19933;-72
2022/10/11 07:42:57;;;;;;;;;;;13.70;99.90;;;;;;5017575;28;19929;-72
2022/10/11 07:45:28;;;;;;;;;;;13.70;99.90;;;;;;5024242;28;19925;-72
2022/10/11 07:48:00;;;;;;;;;;;13.70;99.90;;;;;;5002916;28;19999;-72
2022/10/11 07:50:26;;;;;;;;;;;13.80;99.90;;;;;;4989007;28;19952;-72
2022/10/11 07:52:58;;;;;;;;;;;13.80;99.90;;;;;;5020149;28;19979;-72
2022/10/11 07:55:33;;;;;;;;;;;13.80;99.90;;;;;;5015972;28;19925;-71
2022/10/11 07:58:13;;;;;;;;;;;13.70;99.90;;;;;;5031051;28;19933;-72
2022/10/11 08:00:51;;;;;;;;;;;13.80;99.90;;;;;;5009177;28;19980;-73
2022/10/11 08:03:22;;;;;;;;;;;13.80;99.90;;;;;;5021771;28;20376;-72
2022/10/11 08:05:57;;;;;;;;;;;13.80;99.90;;;;;;5006808;28;19980;-72
2022/10/11 08:08:24;;;;;;;;;;;13.80;99.90;;;;;;5013141;28;19925;-72
2022/10/11 08:10:56;;;;;;;;;;;13.80;99.90;;;;;;5014538;28;20440;-72
2022/10/11 08:13:27;;;;;;;;;;;13.90;99.90;;;;;;5023431;28;19933;-72
2022/10/11 08:15:54;;;;;;;;;;;13.90;99.90;;;;;;5021989;28;20377;-72
2022/10/11 08:18:26;;;;;;;;;;;13.90;99.90;;;;;;5024465;28;19929;-72
2022/10/11 08:20:52;;;;;;;;;;;14.00;99.90;;;;;;5025550;28;19925;-72
2022/10/11 08:23:24;;;;;;;;;;;14.00;99.90;;;;;;5007229;28;19960;-72
2022/10/11 08:25:57;;;;;;;;;;;14.00;99.90;;;;;;5014321;28;19930;-72
2022/10/11 08:28:28;;;;;;;;;;;14.10;99.90;;;;;;5016622;28;20376;-72
2022/10/11 08:31:00;;;;;;;;;;;14.20;99.90;;;;;;5010099;28;19976;-72
2022/10/11 08:33:32;;;;;;;;;;;14.30;99.90;;;;;;5011314;28;20348;-72
2022/10/11 08:36:05;;;;;;;;;;;14.40;99.90;;;;;;5016626;28;19984;-72
2022/10/11 08:38:37;;;;;;;;;;;14.50;99.90;;;;;;5041016;28;19933;-71
2022/10/11 08:41:17;;;;;;;;;;;14.60;99.90;;;;;;5033820;28;19930;-72
2022/10/11 08:43:49;;;;;;;;;;;14.80;99.90;;;;;;5018409;28;19976;-72
2022/10/11 08:46:22;;;;;;;;;;;14.80;99.90;;;;;;5015571;28;19925;-72
2022/10/11 08:48:54;;;;;;;;;;;14.90;99.90;;;;;;4993985;28;19926;-72
2022/10/11 08:51:26;;;;;;;;;;;15.00;99.90;;;;;;5016972;28;19967;-72
2022/10/11 08:54:33;;;;;;;;;;;15.10;99.90;;;;;;5024772;28;19926;-72
2022/10/11 08:57:05;;;;;;;;;;;15.20;99.90;;;;;;4977771;28;19925;-72
2022/10/11 08:59:37;;;;;;;;;;;15.30;99.90;;;;;;5018520;28;19932;-71
2022/10/11 09:02:18;;;;;;;;;;;15.40;99.90;;;;;;4998681;28;20328;-72
2022/10/11 09:04:52;;;;;;;;;;;15.50;99.90;;;;;;5016800;28;19925;-71
2022/10/11 09:07:42;;;;;;;;;;;15.50;99.90;;;;;;5034739;28;20420;-71
2022/10/11 09:10:29;;;;;;;;;;;15.60;99.90;;;;;;5014863;28;19956;-72
2022/10/11 09:13:01;;;;;;;;;;;15.70;99.90;;;;;;5006440;28;19929;-71
2022/10/11 09:15:41;;;;;;;;;;;15.80;99.90;;;;;;5034746;28;19925;-71
2022/10/11 09:18:23;;;;;;;;;;;15.80;99.90;;;;;;5017326;28;20280;-71
2022/10/11 09:20:55;;;;;;;;;;;15.90;99.90;;;;;;5031859;28;19925;-71
2022/10/11 09:24:02;;;;;;;;;;;16.00;99.90;;;;;;5015864;28;19929;-71
2022/10/11 09:26:33;;;;;;;;;;;16.00;99.90;;;;;;4962239;28;19926;-71
2022/10/11 09:29:14;;;;;;;;;;;16.10;99.90;;;;;;4994811;28;19926;-71
2022/10/11 09:31:47;;;;;;;;;;;16.10;99.90;;;;;;5021050;28;19925;-71
2022/10/11 09:34:20;;;;;;;;;;;16.10;99.90;;;;;;4999817;28;19929;-72
2022/10/11 09:37:10;;;;;;;;;;;16.00;99.90;;;;;;5019834;28;19925;-71
2022/10/11 09:39:46;;;;;;;;;;;15.90;99.90;;;;;;5012864;28;19979;-71
2022/10/11 09:42:18;;;;;;;;;;;15.80;99.90;;;;;;5013418;28;19929;-71
2022/10/11 09:44:50;;;;;;;;;;;15.80;99.90;;;;;;5014382;28;19980;-71
2022/10/11 09:47:23;;;;;;;;;;;15.80;99.90;;;;;;4990033;28;19925;-71
2022/10/11 09:49:53;;;;;;;;;;;15.90;99.90;;;;;;4996747;28;19933;-70
2022/10/11 09:52:25;;;;;;;;;;;15.90;99.90;;;;;;5030960;28;19956;-71
2022/10/11 09:54:59;;;;;;;;;;;16.00;99.90;;;;;;5013974;28;19929;-71
2022/10/11 09:57:36;;;;;;;;;;;16.10;99.90;;;;;;5017485;28;19973;-71
2022/10/11 10:00:05;;;;;;;;;;;16.30;99.90;;;;;;5031461;28;19925;-72
2022/10/11 10:02:48;;;;;;;;;;;16.40;99.90;;;;;;5012770;28;20472;-71
2022/10/11 10:05:20;;;;;;;;;;;16.40;99.90;;;;;;5012868;28;19926;-71
2022/10/11 10:08:19;;;;;;;;;;;16.50;99.90;;;;;;5000145;28;20347;-71
2022/10/11 10:11:01;;;;;;;;;;;16.50;99.90;;;;;;5012444;28;19992;-70
2022/10/11 10:13:44;;;;;;;;;;;16.60;99.90;;;;;;5028142;28;19930;-71
2022/10/11 10:16:37;;;;;;;;;;;16.60;99.90;;;;;;5004315;28;19929;-71
2022/10/11 10:19:16;;;;;;;;;;;16.70;99.90;;;;;;5025249;28;19972;-71
2022/10/11 10:21:50;;;;;;;;;;;16.70;99.90;;;;;;5010065;28;19932;-71
2022/10/11 10:24:31;;;;;;;;;;;16.70;99.90;;;;;;5027264;28;19925;-71
2022/10/11 10:27:13;;;;;;;;;;;16.70;99.90;;;;;;4993856;28;20376;-71
2022/10/11 10:29:59;;;;;;;;;;;16.80;99.90;;;;;;5012997;28;19976;-71
2022/10/11 10:32:51;;;;;;;;;;;16.80;99.90;;;;;;5011333;28;19956;-72
2022/10/11 10:35:21;;;;;;;;;;;16.90;99.90;;;;;;5002017;28;19925;-71
2022/10/11 10:37:58;;;;;;;;;;;17.00;99.90;;;;;;5016637;28;19984;-71
2022/10/11 10:40:36;;;;;;;;;;;17.10;99.90;;;;;;5033171;28;19925;-71
2022/10/11 10:43:16;;;;;;;;;;;17.10;99.90;;;;;;5031854;28;19956;-71
2022/10/11 10:46:02;;;;;;;;;;;17.20;99.90;;;;;;5024626;28;19929;-71
2022/10/11 10:48:38;;;;;;;;;;;17.20;99.90;;;;;;5033108;28;19925;-71
2022/10/11 10:51:18;;;;;;;;;;;17.20;99.90;;;;;;5029879;28;20547;-71
2022/10/11 10:53:57;;;;;;;;;;;17.20;99.90;;;;;;5029919;28;19925;-71
2022/10/11 10:56:34;;;;;;;;;;;17.10;99.90;;;;;;5032133;28;19929;-71
2022/10/11 10:59:09;;;;;;;;;;;17.10;99.90;;;;;;5032880;28;19929;-71
2022/10/11 11:02:02;;;;;;;;;;;17.00;99.90;;;;;;4999273;28;19978;-71
2022/10/11 11:04:32;;;;;;;;;;;16.90;99.90;;;;;;5021557;28;19929;-71
2022/10/11 11:07:06;;;;;;;;;;;16.80;99.90;;;;;;5024136;28;19932;-71
2022/10/11 11:09:50;;;;;;;;;;;16.80;99.90;;;;;;5009946;28;19975;-72
2022/10/11 11:12:25;;;;;;;;;;;16.70;99.90;;;;;;5032746;28;21250;-71
2022/10/11 11:15:03;;;;;;;;;;;16.60;99.90;;;;;;5025437;28;19975;-72
2022/10/11 11:17:34;;;;;;;;;;;16.60;99.90;;;;;;5003724;28;19932;-71
2022/10/11 11:20:01;;;;;;;;;;;16.60;99.90;;;;;;5005506;28;19958;-72
2022/10/11 11:22:41;;;;;;;;;;;16.60;99.90;;;;;;5018405;28;19980;-72
2022/10/11 11:25:27;;;;;;;;;;;16.50;99.90;;;;;;5005590;28;19926;-72
2022/10/11 11:28:02;;;;;;;;;;;16.60;99.90;;;;;;5014470;28;19929;-72
2022/10/11 11:30:58;;;;;;;;;;;16.60;99.90;;;;;;5016481;28;19981;-71
2022/10/11 11:33:36;;;;;;;;;;;16.60;99.90;;;;;;4961807;28;19983;-71
2022/10/11 11:36:11;;;;;;;;;;;16.60;99.90;;;;;;5023875;28;19930;-71
2022/10/11 11:38:42;;;;;;;;;;;16.60;99.90;;;;;;5000021;28;19929;-73
2022/10/11 11:41:18;;;;;;;;;;;16.60;99.90;;;;;;4995724;28;19956;-71
2022/10/11 11:43:49;;;;;;;;;;;16.70;99.90;;;;;;5003153;28;20394;-72
2022/10/11 11:46:23;;;;;;;;;;;16.70;99.90;;;;;;5015551;28;19929;-72
2022/10/11 11:48:51;;;;;;;;;;;16.80;99.90;;;;;;5032801;28;19925;-72
2022/10/11 11:51:25;;;;;;;;;;;16.80;99.90;;;;;;5029796;28;19949;-71
2022/10/11 11:53:57;;;;;;;;;;;17.00;99.90;;;;;;5035807;28;19980;-72
2022/10/11 11:56:33;;;;;;;;;;;17.00;99.90;;;;;;5028571;28;20383;-72
2022/10/11 11:59:07;;;;;;;;;;;17.10;99.90;;;;;;5014820;28;19926;-72
2022/10/11 12:01:46;;;;;;;;;;;17.30;99.90;;;;;;5002135;28;19925;-71
2022/10/11 12:04:44;;;;;;;;;;;17.30;99.90;;;;;;5013657;28;19929;-73
2022/10/11 12:07:12;;;;;;;;;;;17.30;99.90;;;;;;5017937;28;20308;-72
2022/10/11 12:09:45;;;;;;;;;;;17.40;99.90;;;;;;5002664;28;19929;-72
2022/10/11 12:12:29;;;;;;;;;;;17.50;99.90;;;;;;5012443;28;19929;-72
2022/10/11 12:15:08;;;;;;;;;;;17.50;99.90;;;;;;5024825;28;19933;-72
2022/10/11 12:17:51;;;;;;;;;;;17.50;99.90;;;;;;5031661;28;19925;-72
2022/10/11 12:20:30;;;;;;;;;;;17.50;99.90;;;;;;4997264;28;19925;-72
2022/10/11 12:23:17;;;;;;;;;;;17.60;99.90;;;;;;5004217;28;19953;-72
2022/10/11 12:26:08;;;;;;;;;;;17.70;99.90;;;;;;5023517;28;20388;-71
2022/10/11 12:28:40;;;;;;;;;;;17.70;99.90;;;;;;5006553;28;19979;-72
2022/10/11 12:31:20;;;;;;;;;;;17.80;99.90;;;;;;5003874;28;19930;-72
2022/10/11 12:34:01;;;;;;;;;;;17.90;99.90;;;;;;5015970;28;20451;-71
2022/10/11 12:36:59;;;;;;;;;;;18.10;99.90;;;;;;5018777;28;20403;-72
2022/10/11 12:39:43;;;;;;;;;;;18.30;99.90;;;;;;5008739;28;19984;-72
2022/10/11 12:42:34;;;;;;;;;;;18.30;99.90;;;;;;5009566;28;19976;-72
2022/10/11 12:45:09;;;;;;;;;;;18.30;99.90;;;;;;5015957;28;19925;-72
2022/10/11 12:47:43;;;;;;;;;;;18.30;99.90;;;;;;5013315;28;19925;-72
2022/10/11 12:50:26;;;;;;;;;;;18.30;99.90;;;;;;5010045;28;19932;-72
2022/10/11 12:53:22;;;;;;;;;;;18.10;99.90;;;;;;5002969;28;19925;-72
2022/10/11 12:56:07;;;;;;;;;;;18.00;99.90;;;;;;4938419;28;19957;-72
2022/10/11 12:58:40;;;;;;;;;;;17.80;99.90;;;;;;5025923;28;20367;-72
2022/10/11 13:01:35;;;;;;;;;;;17.70;99.90;;;;;;5023836;28;19936;-72
2022/10/11 13:04:08;;;;;;;;;;;17.70;99.90;;;;;;4985603;28;19974;-73
2022/10/11 13:06:44;;;;;;;;;;;17.70;99.90;;;;;;5003013;28;19972;-72
2022/10/11 13:09:21;;;;;;;;;;;17.80;99.90;;;;;;5004804;28;19980;-72
2022/10/11 13:12:04;;;;;;;;;;;17.90;99.90;;;;;;5021533;28;19929;-72
2022/10/11 13:14:39;;;;;;;;;;;17.90;99.90;;;;;;5006472;28;19932;-72
2022/10/11 13:17:23;;;;;;;;;;;18.00;99.90;;;;;;5013685;28;19976;-72
2022/10/11 13:19:57;;;;;;;;;;;18.00;99.90;;;;;;5020598;28;19960;-72
2022/10/11 13:22:24;;;;;;;;;;;18.10;99.90;;;;;;5013703;28;19925;-72
2022/10/11 13:24:56;;;;;;;;;;;18.10;99.90;;;;;;5026402;28;19925;-72
2022/10/11 13:27:28;;;;;;;;;;;18.20;99.90;;;;;;5012508;28;20392;-71
2022/10/11 13:30:01;;;;;;;;;;;18.30;99.90;;;;;;5018672;28;19926;-72
2022/10/11 13:32:34;;;;;;;;;;;18.20;99.90;;;;;;5027223;28;19925;-72
2022/10/11 13:35:13;;;;;;;;;;;18.10;99.90;;;;;;5009055;28;20023;-72
2022/10/11 13:37:41;;;;;;;;;;;18.10;99.90;;;;;;5023619;28;19929;-72
2022/10/11 13:40:17;;;;;;;;;;;18.20;99.90;;;;;;5023011;28;20307;-72
2022/10/11 13:42:50;;;;;;;;;;;18.20;99.90;;;;;;5008028;28;19975;-72
2022/10/11 13:45:22;;;;;;;;;;;18.20;99.90;;;;;;5000591;28;19926;-71
2022/10/11 13:47:54;;;;;;;;;;;18.20;99.90;;;;;;4991154;28;20406;-71
2022/10/11 13:50:32;;;;;;;;;;;18.20;99.90;;;;;;5018969;28;19929;-72
2022/10/11 13:53:08;;;;;;;;;;;18.10;99.90;;;;;;4999618;28;19925;-71
2022/10/11 13:55:45;;;;;;;;;;;18.10;99.90;;;;;;5014966;28;20327;-72
2022/10/11 13:58:17;;;;;;;;;;;18.00;99.90;;;;;;5016689;28;21153;-71
2022/10/11 14:00:56;;;;;;;;;;;17.90;99.90;;;;;;5020732;28;20406;-72
2022/10/11 14:03:24;;;;;;;;;;;17.80;99.90;;;;;;5009888;28;19925;-72
2022/10/11 14:05:53;;;;;;;;;;;17.70;99.90;;;;;;5021623;28;19933;-72
2022/10/11 14:08:29;;;;;;;;;;;17.70;99.90;;;;;;5005105;28;19938;-72
2022/10/11 14:10:56;;;;;;;;;;;17.70;99.90;;;;;;5014165;28;19952;-73
2022/10/11 14:13:38;;;;;;;;;;;17.70;99.90;;;;;;4976737;28;20478;-73
2022/10/11 14:16:11;;;;;;;;;;;17.80;99.90;;;;;;4997615;28;20417;-73
2022/10/11 14:18:43;;;;;;;;;;;17.80;99.90;;;;;;4992214;28;19925;-72
2022/10/11 14:21:18;;;;;;;;;;;17.70;99.90;;;;;;5001091;28;20302;-73
2022/10/11 14:23:54;;;;;;;;;;;17.60;99.90;;;;;;4998780;28;19934;-72
2022/10/11 14:26:21;;;;;;;;;;;17.60;99.90;;;;;;5020381;28;19980;-71
2022/10/11 14:28:50;;;;;;;;;;;17.70;99.90;;;;;;4996718;28;19941;-72
2022/10/11 14:31:24;;;;;;;;;;;17.60;99.90;;;;;;5007664;28;20736;-72
2022/10/11 14:33:56;;;;;;;;;;;17.60;99.90;;;;;;5021685;28;19988;-73
2022/10/11 14:36:27;;;;;;;;;;;17.60;99.90;;;;;;5020515;28;19952;-72
2022/10/11 14:38:54;;;;;;;;;;;17.60;99.90;;;;;;5019146;28;19984;-73
2022/10/11 14:41:26;;;;;;;;;;;17.60;99.90;;;;;;5002540;28;19964;-72
2022/10/11 14:43:57;;;;;;;;;;;17.60;99.90;;;;;;5001384;28;19925;-71
2022/10/11 14:46:29;;;;;;;;;;;17.60;99.90;;;;;;4999921;28;19929;-72
2022/10/11 14:49:01;;;;;;;;;;;17.60;99.90;;;;;;4999604;28;19925;-71
2022/10/11 14:51:31;;;;;;;;;;;17.50;99.90;;;;;;5016017;28;19926;-72
2022/10/11 14:54:02;;;;;;;;;;;17.60;99.90;;;;;;5015901;28;19929;-72
2022/10/11 14:56:34;;;;;;;;;;;17.50;99.90;;;;;;5022200;28;19957;-71